Time;durP1;ratioP1;P1;durP2;ratioP2;P2;SDS_P1;SDS_P2;PMS_P1;PMS_P2;Temp;Humidity;BMP_temperature;BMP_pressure;BME280_temperature;BME280_humidity;BME280_pressure;Samples;Min_cycle;Max_cycle;Signal;HPM_P1;HPM_P2
2022/06/18 00:01:47;;;;;;;;;;;;;;;20.12;43.47;98596.53;5064870;28;20331;-61
2022/06/18 00:04:35;;;;;;;;;;;;;;;19.84;43.70;98596.63;5072303;28;19927;-62
2022/06/18 00:07:24;;;;;;;;;;;;;;;20.16;43.35;98591.91;5064681;28;19921;-62
2022/06/18 00:10:14;;;;;;;;;;;;;;;20.04;43.44;98586.50;5061968;28;20208;-64
2022/06/18 00:16:12;;;;;;;;;;;;;;;19.74;43.53;98580.63;5066625;28;20112;-63
2022/06/18 00:19:01;;;;;;;;;;;;;;;19.98;42.99;98580.44;5064895;28;19950;-64
2022/06/18 00:21:50;;;;;;;;;;;;;;;19.71;43.29;98579.38;5064016;28;19924;-64
2022/06/18 00:24:41;;;;;;;;;;;;;;;19.51;43.92;98574.91;5059197;28;19931;-63
2022/06/18 00:27:31;;;;;;;;;;;;;;;19.49;43.63;98574.44;5060678;28;19947;-62
2022/06/18 00:30:20;;;;;;;;;;;;;;;19.66;43.20;98573.34;5062796;28;20045;-63
2022/06/18 00:33:09;;;;;;;;;;;;;;;19.39;43.42;98578.53;5067798;28;20258;-63
2022/06/18 00:35:59;;;;;;;;;;;;;;;19.36;43.74;98580.03;5049608;28;19929;-64
2022/06/18 00:38:48;;;;;;;;;;;;;;;19.02;44.29;98583.41;5064443;28;19968;-64
2022/06/18 00:41:40;;;;;;;;;;;;;;;18.99;44.30;98579.41;5061662;28;19938;-63
2022/06/18 00:44:55;;;;;;;;;;;;;;;19.00;44.57;98583.75;5061327;28;19921;-61
2022/06/18 00:47:47;;;;;;;;;;;;;;;19.25;43.87;98581.69;5059742;28;19999;-63
2022/06/18 00:50:38;;;;;;;;;;;;;;;19.68;42.61;98582.03;5047953;28;19950;-64
2022/06/18 00:53:29;;;;;;;;;;;;;;;19.14;43.35;98585.31;5057287;28;20326;-63
2022/06/18 00:56:19;;;;;;;;;;;;;;;19.29;43.45;98585.34;5061557;28;19920;-63
2022/06/18 01:02:24;;;;;;;;;;;;;;;19.32;43.73;98570.84;5054316;28;19920;-62
2022/06/18 01:05:17;;;;;;;;;;;;;;;19.27;44.09;98567.56;5059375;28;20132;-63
2022/06/18 01:08:06;;;;;;;;;;;;;;;19.11;44.18;98564.75;5063600;28;20058;-61
2022/06/18 01:10:55;;;;;;;;;;;;;;;19.00;44.67;98563.66;5049134;28;19924;-62
2022/06/18 01:13:44;;;;;;;;;;;;;;;18.96;44.60;98551.75;5046628;28;19920;-62
2022/06/18 01:16:34;;;;;;;;;;;;;;;18.77;45.37;98560.69;5062861;28;19928;-63
2022/06/18 01:19:28;;;;;;;;;;;;;;;18.77;45.60;98541.41;5048049;28;19967;-64
2022/06/18 01:22:21;;;;;;;;;;;;;;;18.40;46.46;98557.19;5062108;28;19931;-59
2022/06/18 01:25:17;;;;;;;;;;;;;;;18.73;46.24;98555.06;5061212;28;20015;-63
2022/06/18 01:28:13;;;;;;;;;;;;;;;18.74;46.31;98551.16;5045899;28;19925;-63
2022/06/18 01:31:06;;;;;;;;;;;;;;;18.49;46.56;98558.66;5052462;28;19921;-64
2022/06/18 01:34:06;;;;;;;;;;;;;;;18.72;45.65;98536.94;5055226;28;20011;-62
2022/06/18 01:36:57;;;;;;;;;;;;;;;18.78;44.92;98540.25;5045510;28;20480;-62
2022/06/18 01:39:51;;;;;;;;;;;;;;;18.55;45.11;98535.25;5046989;28;20280;-61
2022/06/18 01:42:43;;;;;;;;;;;;;;;18.44;45.56;98542.41;5044573;28;20258;-63
2022/06/18 01:45:32;;;;;;;;;;;;;;;18.49;45.25;98531.16;5071450;28;19927;-61
2022/06/18 01:48:21;;;;;;;;;;;;;;;18.62;44.81;98526.41;5068466;28;20538;-63
2022/06/18 01:51:14;;;;;;;;;;;;;;;18.36;45.58;98523.25;5045713;28;19928;-63
2022/06/18 01:54:07;;;;;;;;;;;;;;;18.26;46.13;98527.28;5033505;28;19964;-63
2022/06/18 01:56:58;;;;;;;;;;;;;;;18.20;46.36;98532.22;5010165;28;19932;-60
2022/06/18 01:59:52;;;;;;;;;;;;;;;18.30;45.87;98528.19;5040601;28;20368;-64
2022/06/18 02:02:45;;;;;;;;;;;;;;;18.15;46.09;98524.22;5049800;28;20477;-61
2022/06/18 02:05:37;;;;;;;;;;;;;;;18.16;46.25;98519.50;5052961;28;19929;-61
2022/06/18 02:08:26;;;;;;;;;;;;;;;18.33;45.55;98517.31;5017744;28;19948;-62
2022/06/18 02:11:17;;;;;;;;;;;;;;;17.89;46.26;98513.59;5043678;28;20361;-61
2022/06/18 02:14:07;;;;;;;;;;;;;;;17.98;46.51;98518.97;5052028;28;20361;-63
2022/06/18 02:16:56;;;;;;;;;;;;;;;17.98;46.36;98516.22;5055805;28;20289;-59
2022/06/18 02:20:10;;;;;;;;;;;;;;;18.38;45.58;98515.47;5036944;28;20367;-61
2022/06/18 02:22:58;;;;;;;;;;;;;;;18.39;45.26;98506.06;5040743;28;19925;-62
2022/06/18 02:25:47;;;;;;;;;;;;;;;18.30;45.28;98501.50;5036384;28;20094;-62
2022/06/18 02:29:01;;;;;;;;;;;;;;;17.73;46.39;98507.97;5036530;28;19932;-61
2022/06/18 02:31:50;;;;;;;;;;;;;;;18.09;45.94;98509.09;5032928;28;19932;-62
2022/06/18 02:34:40;;;;;;;;;;;;;;;17.78;46.33;98502.25;5035719;28;20267;-62
2022/06/18 02:37:54;;;;;;;;;;;;;;;17.42;47.63;98496.75;5040455;28;19964;-57
2022/06/18 02:40:43;;;;;;;;;;;;;;;17.91;46.75;98505.03;5028506;28;20319;-61
2022/06/18 02:43:31;;;;;;;;;;;;;;;17.59;47.18;98496.53;5035967;28;19921;-63
2022/06/18 02:46:19;;;;;;;;;;;;;;;17.74;47.18;98503.31;5050181;28;19925;-59
2022/06/18 02:49:09;;;;;;;;;;;;;;;17.59;47.51;98499.28;5065817;28;19931;-60
2022/06/18 02:51:59;;;;;;;;;;;;;;;17.54;47.51;98499.50;5075775;28;19946;-62
2022/06/18 02:58:04;;;;;;;;;;;;;;;17.82;46.77;98493.34;5075402;28;19927;-63
2022/06/18 03:00:53;;;;;;;;;;;;;;;17.55;47.69;98495.59;5074581;28;19927;-63
2022/06/18 03:03:43;;;;;;;;;;;;;;;17.46;48.05;98500.38;5076171;28;19930;-63
2022/06/18 03:06:34;;;;;;;;;;;;;;;17.77;46.96;98497.91;5077985;28;20121;-62
2022/06/18 03:09:23;;;;;;;;;;;;;;;17.63;47.45;98500.19;5075576;28;20237;-63
2022/06/18 03:12:11;;;;;;;;;;;;;;;17.61;47.67;98499.72;5060460;28;19924;-62
2022/06/18 03:14:59;;;;;;;;;;;;;;;17.76;47.23;98496.31;5066830;28;19924;-64
2022/06/18 03:17:47;;;;;;;;;;;;;;;18.15;46.41;98496.72;5081244;28;19932;-62
2022/06/18 03:20:38;;;;;;;;;;;;;;;17.87;47.00;98484.84;5064040;28;19924;-62
2022/06/18 03:23:27;;;;;;;;;;;;;;;17.93;46.78;98494.47;5071575;28;19920;-64
2022/06/18 03:26:28;;;;;;;;;;;;;;;17.76;47.26;98484.53;5079920;28;19920;-64
2022/06/18 03:29:18;;;;;;;;;;;;;;;18.02;46.92;98493.19;5064136;28;19920;-63
2022/06/18 03:32:08;;;;;;;;;;;;;;;18.15;46.78;98477.47;5075860;28;20016;-64
2022/06/18 03:35:22;;;;;;;;;;;;;;;17.95;46.94;98481.16;5066235;28;19927;-63
2022/06/18 03:38:12;;;;;;;;;;;;;;;17.75;47.36;98482.94;5065138;28;19989;-63
2022/06/18 03:41:00;;;;;;;;;;;;;;;17.87;47.15;98488.41;5056100;28;20304;-64
2022/06/18 03:44:15;;;;;;;;;;;;;;;18.08;46.80;98482.75;5060964;28;19942;-62
2022/06/18 03:47:06;;;;;;;;;;;;;;;17.92;47.08;98481.88;5072952;28;19924;-62
2022/06/18 03:49:58;;;;;;;;;;;;;;;17.70;47.59;98483.94;5057262;28;19927;-64
2022/06/18 03:52:47;;;;;;;;;;;;;;;17.51;48.12;98476.25;5073586;28;20020;-63
2022/06/18 03:55:36;;;;;;;;;;;;;;;17.63;47.76;98477.38;5054488;28;21391;-63
2022/06/18 03:58:28;;;;;;;;;;;;;;;17.59;48.06;98477.28;5054377;28;19929;-64
2022/06/18 04:01:29;;;;;;;;;;;;;;;17.90;46.99;98487.72;5073782;28;19935;-62
2022/06/18 04:04:23;;;;;;;;;;;;;;;17.82;47.18;98488.63;5050110;28;19931;-63
2022/06/18 04:07:15;;;;;;;;;;;;;;;17.97;47.33;98485.19;5061370;28;19927;-62
2022/06/18 04:10:30;;;;;;;;;;;;;;;17.91;47.12;98481.06;5060602;28;20007;-64
2022/06/18 04:13:18;;;;;;;;;;;;;;;18.29;46.31;98477.09;5057886;28;20395;-63
2022/06/18 04:16:27;;;;;;;;;;;;;;;18.32;46.20;98474.47;5059071;28;19936;-64
2022/06/18 04:19:16;;;;;;;;;;;;;;;18.21;46.10;98473.31;5074253;28;19924;-63
2022/06/18 04:22:06;;;;;;;;;;;;;;;18.19;46.52;98469.34;5075153;28;19942;-63
2022/06/18 04:28:44;;;;;;;;;;;;;;;18.02;46.69;98478.66;5061495;28;19935;-64
2022/06/18 04:31:36;;;;;;;;;;;;;;;18.08;46.85;98470.97;5056337;28;19920;-65
2022/06/18 04:34:26;;;;;;;;;;;;;;;18.09;46.94;98478.84;5074180;28;19920;-64
2022/06/18 04:37:38;;;;;;;;;;;;;;;18.02;47.39;98487.69;5062814;28;19927;-62
2022/06/18 04:44:20;;;;;;;;;;;;;;;18.55;46.33;98487.69;5059004;28;20354;-61
2022/06/18 04:47:17;;;;;;;;;;;;;;;18.21;46.78;98486.28;5076607;28;19959;-63
2022/06/18 04:50:08;;;;;;;;;;;;;;;18.19;46.83;98486.63;5060425;28;20041;-61
2022/06/18 04:52:58;;;;;;;;;;;;;;;18.00;47.22;98489.19;5058258;28;19920;-60
2022/06/18 04:55:47;;;;;;;;;;;;;;;18.47;46.21;98483.91;5066794;28;19920;-62
2022/06/18 04:58:59;;;;;;;;;;;;;;;18.30;46.53;98487.75;5068352;28;19924;-62
2022/06/18 05:01:57;;;;;;;;;;;;;;;18.27;46.83;98491.22;5055534;28;20031;-61
2022/06/18 05:05:22;;;;;;;;;;;;;;;18.67;46.07;98484.88;5058533;28;19931;-63
2022/06/18 05:08:32;;;;;;;;;;;;;;;18.56;46.02;98489.28;5068494;28;20198;-64
2022/06/18 05:11:46;;;;;;;;;;;;;;;18.92;45.41;98477.34;5077421;28;20140;-62
2022/06/18 05:14:42;;;;;;;;;;;;;;;18.87;45.81;98485.06;5070057;28;19928;-64
2022/06/18 05:17:34;;;;;;;;;;;;;;;18.62;46.66;98482.38;5058911;28;19951;-63
2022/06/18 05:20:28;;;;;;;;;;;;;;;18.98;45.91;98475.13;5060328;28;20012;-65
2022/06/18 05:26:39;;;;;;;;;;;;;;;18.94;46.21;98479.72;5064725;28;19940;-64
2022/06/18 05:29:27;;;;;;;;;;;;;;;18.74;46.32;98484.28;5061026;28;19963;-63
2022/06/18 05:32:17;;;;;;;;;;;;;;;18.99;46.25;98488.53;5053697;28;20285;-62
2022/06/18 05:35:07;;;;;;;;;;;;;;;19.06;46.24;98476.91;5062525;28;20272;-61
2022/06/18 05:37:56;;;;;;;;;;;;;;;19.48;45.06;98484.66;5062307;28;19927;-62
2022/06/18 05:40:44;;;;;;;;;;;;;;;19.47;45.29;98474.78;5077258;28;20383;-62
2022/06/18 05:43:36;;;;;;;;;;;;;;;19.82;44.42;98483.16;5052953;28;19986;-61
2022/06/18 05:46:50;;;;;;;;;;;;;;;19.89;44.47;98475.03;5073027;28;19924;-62
2022/06/18 05:49:40;;;;;;;;;;;;;;;19.59;44.91;98472.75;5036255;28;19943;-58
2022/06/18 05:52:30;;;;;;;;;;;;;;;19.92;44.64;98465.22;5034376;28;20019;-62
2022/06/18 05:55:30;;;;;;;;;;;;;;;19.79;44.63;98468.13;5045911;28;20206;-61
2022/06/18 05:58:30;;;;;;;;;;;;;;;20.07;44.54;98469.91;5035554;28;19944;-62
2022/06/18 06:01:33;;;;;;;;;;;;;;;20.02;45.04;98464.69;5037521;28;20398;-64
2022/06/18 06:04:23;;;;;;;;;;;;;;;20.37;44.03;98457.16;5028483;28;19924;-63
2022/06/18 06:07:13;;;;;;;;;;;;;;;20.47;44.00;98464.09;5037791;28;20423;-64
2022/06/18 06:13:14;;;;;;;;;;;;;;;20.50;43.92;98457.06;4991655;28;19925;-63
2022/06/18 06:16:04;;;;;;;;;;;;;;;20.56;44.01;98459.19;5038462;28;20264;-61
2022/06/18 06:22:06;;;;;;;;;;;;;;;20.88;43.76;98461.75;5039462;28;19943;-61
2022/06/18 06:24:55;;;;;;;;;;;;;;;21.07;43.08;98456.19;5039524;28;19927;-62
2022/06/18 06:27:43;;;;;;;;;;;;;;;21.15;42.44;98465.41;5033468;28;20373;-63
2022/06/18 06:30:31;;;;;;;;;;;;;;;21.22;42.57;98462.75;5036693;28;20132;-64
2022/06/18 06:33:19;;;;;;;;;;;;;;;21.38;42.40;98460.69;5040495;28;20282;-63
2022/06/18 06:39:41;;;;;;;;;;;;;;;21.76;41.40;98447.84;5037627;28;19920;-60
2022/06/18 06:42:30;;;;;;;;;;;;;;;21.89;40.88;98443.72;5035099;28;20746;-60
2022/06/18 06:45:20;;;;;;;;;;;;;;;22.05;39.68;98445.50;5038263;28;20106;-61
2022/06/18 06:48:09;;;;;;;;;;;;;;;22.18;38.97;98439.41;5059450;28;19956;-60
2022/06/18 06:50:58;;;;;;;;;;;;;;;22.20;39.38;98441.78;5077905;28;20416;-60
2022/06/18 06:53:48;;;;;;;;;;;;;;;22.27;39.34;98441.09;5076687;28;19920;-64
2022/06/18 06:59:42;;;;;;;;;;;;;;;22.44;38.81;98429.44;5079826;28;20155;-61
2022/06/18 07:02:33;;;;;;;;;;;;;;;22.73;39.22;98436.09;5068998;28;19924;-61
2022/06/18 07:05:21;;;;;;;;;;;;;;;22.75;39.11;98437.31;5077702;28;20357;-61
2022/06/18 07:08:10;;;;;;;;;;;;;;;22.74;38.75;98432.13;5077621;28;19927;-61
2022/06/18 07:11:00;;;;;;;;;;;;;;;22.94;39.07;98416.94;5076916;28;19927;-59
2022/06/18 07:13:49;;;;;;;;;;;;;;;23.15;38.60;98427.44;5086287;28;20399;-61
2022/06/18 07:17:03;;;;;;;;;;;;;;;23.18;39.00;98423.13;5083028;28;19927;-62
2022/06/18 07:19:51;;;;;;;;;;;;;;;23.32;38.75;98426.00;5086136;28;19925;-59
2022/06/18 07:22:40;;;;;;;;;;;;;;;23.41;38.96;98422.91;5074820;28;20477;-60
2022/06/18 07:25:53;;;;;;;;;;;;;;;23.47;39.18;98418.59;5069784;28;19920;-60
2022/06/18 07:28:44;;;;;;;;;;;;;;;23.66;38.60;98415.59;5065667;28;20033;-57
2022/06/18 07:31:37;;;;;;;;;;;;;;;23.72;38.56;98414.06;5061443;28;19985;-57
2022/06/18 07:34:26;;;;;;;;;;;;;;;24.07;36.41;98417.41;5075957;28;19928;-57
2022/06/18 07:37:14;;;;;;;;;;;;;;;24.03;37.52;98407.09;5077614;28;20154;-57
2022/06/18 07:40:03;;;;;;;;;;;;;;;24.00;37.03;98401.53;5077253;28;19940;-57
2022/06/18 07:42:52;;;;;;;;;;;;;;;24.08;36.60;98396.81;5074661;28;19989;-57
2022/06/18 07:45:44;;;;;;;;;;;;;;;24.29;36.05;98394.94;5077112;28;19924;-58
2022/06/18 07:48:33;;;;;;;;;;;;;;;24.30;36.75;98396.50;5074884;28;19928;-56
2022/06/18 07:51:47;;;;;;;;;;;;;;;24.52;36.74;98393.84;5071582;28;20340;-56
2022/06/18 07:54:35;;;;;;;;;;;;;;;24.46;36.54;98390.66;5066029;28;19973;-58
2022/06/18 07:57:25;;;;;;;;;;;;;;;24.55;36.85;98387.47;5073751;28;20276;-57
2022/06/18 08:00:16;;;;;;;;;;;;;;;24.62;37.06;98390.28;5066055;28;19932;-57
2022/06/18 08:03:07;;;;;;;;;;;;;;;24.77;36.85;98391.13;5070603;28;19924;-56
2022/06/18 08:05:55;;;;;;;;;;;;;;;25.00;35.84;98386.00;5064625;28;19935;-57
2022/06/18 08:15:10;;;;;;;;;;;;;;;25.10;35.96;98378.88;5062323;28;19927;-57
2022/06/18 08:17:59;;;;;;;;;;;;;;;25.12;35.73;98370.13;5058621;28;19967;-57
2022/06/18 08:24:38;;;;;;;;;;;;;;;25.42;36.18;98373.31;5069199;28;19931;-57
2022/06/18 08:27:27;;;;;;;;;;;;;;;25.41;35.32;98371.72;5068813;28;19964;-56
2022/06/18 08:30:16;;;;;;;;;;;;;;;25.18;36.73;98365.75;5059048;28;19933;-57
2022/06/18 08:33:05;;;;;;;;;;;;;;;25.48;35.91;98370.91;5068950;28;20269;-56
2022/06/18 08:35:53;;;;;;;;;;;;;;;26.10;34.93;98368.41;5065767;28;19947;-55
2022/06/18 08:38:43;;;;;;;;;;;;;;;25.84;34.23;98366.09;5062181;28;20261;-57
2022/06/18 08:41:51;;;;;;;;;;;;;;;26.28;34.34;98368.31;5064549;28;19947;-57
2022/06/18 08:44:43;;;;;;;;;;;;;;;26.02;34.57;98369.63;5061192;28;19920;-57
2022/06/18 08:47:47;;;;;;;;;;;;;;;25.92;34.79;98362.09;5059550;28;19955;-57
2022/06/18 08:50:38;;;;;;;;;;;;;;;25.84;34.62;98357.75;5069153;28;20014;-56
2022/06/18 08:53:35;;;;;;;;;;;;;;;25.99;34.43;98348.13;5075412;28;19924;-57
2022/06/18 08:56:29;;;;;;;;;;;;;;;25.97;34.37;98356.09;5056752;28;19932;-55
2022/06/18 08:59:45;;;;;;;;;;;;;;;26.00;33.54;98349.75;5068226;28;20260;-57
2022/06/18 09:02:35;;;;;;;;;;;;;;;26.20;33.48;98343.69;5065921;28;20022;-58
2022/06/18 09:05:46;;;;;;;;;;;;;;;26.03;31.58;98346.13;5077614;28;20225;-57
2022/06/18 09:08:41;;;;;;;;;;;;;;;26.25;33.99;98340.47;5076251;28;19921;-56
2022/06/18 09:11:57;;;;;;;;;;;;;;;26.47;31.32;98330.81;5074140;28;19932;-57
2022/06/18 09:15:10;;;;;;;;;;;;;;;26.35;32.33;98328.50;5072557;28;20383;-55
2022/06/18 09:18:00;;;;;;;;;;;;;;;26.39;32.63;98329.28;5073196;28;19924;-57
2022/06/18 09:20:49;;;;;;;;;;;;;;;26.74;30.79;98325.50;5063344;28;19920;-57
2022/06/18 09:23:40;;;;;;;;;;;;;;;26.75;32.41;98329.88;5058705;28;20329;-57
2022/06/18 09:26:54;;;;;;;;;;;;;;;26.94;32.07;98322.94;5063140;28;19921;-57
2022/06/18 09:29:44;;;;;;;;;;;;;;;26.78;29.50;98311.53;5060987;28;20530;-57
2022/06/18 09:32:35;;;;;;;;;;;;;;;27.01;30.89;98319.31;5074959;28;20311;-57
2022/06/18 09:35:24;;;;;;;;;;;;;;;26.95;32.20;98321.72;5066624;28;20429;-58
2022/06/18 09:38:16;;;;;;;;;;;;;;;26.41;31.21;98320.50;5078624;28;19924;-55
2022/06/18 09:41:56;;;;;;;;;;;;;;;26.60;32.90;98306.88;5063498;28;19924;-57
2022/06/18 09:44:47;;;;;;;;;;;;;;;26.48;29.83;98299.00;5065369;28;20156;-56
2022/06/18 09:47:37;;;;;;;;;;;;;;;26.80;31.33;98300.78;5072207;28;19928;-56
2022/06/18 09:50:27;;;;;;;;;;;;;;;27.02;29.49;98296.59;5069624;28;19924;-57
2022/06/18 09:53:17;;;;;;;;;;;;;;;26.93;31.73;98301.06;5077712;28;19927;-56
2022/06/18 09:56:07;;;;;;;;;;;;;;;26.77;30.15;98296.00;5061075;28;20285;-56
2022/06/18 09:58:58;;;;;;;;;;;;;;;26.93;31.67;98293.47;5064583;28;19925;-56
2022/06/18 10:01:49;;;;;;;;;;;;;;;26.64;31.82;98296.50;5072899;28;19924;-55
2022/06/18 10:07:45;;;;;;;;;;;;;;;26.80;32.16;98295.19;5074853;28;20013;-56
2022/06/18 10:10:33;;;;;;;;;;;;;;;26.57;31.90;98299.31;5071198;28;20407;-57
2022/06/18 10:13:23;;;;;;;;;;;;;;;26.79;28.62;98286.03;5069983;28;19920;-56
2022/06/18 10:16:29;;;;;;;;;;;;;;;27.09;31.58;98296.56;5068563;28;19920;-57
2022/06/18 10:19:20;;;;;;;;;;;;;;;27.20;30.50;98292.88;5064392;28;20114;-57
2022/06/18 10:22:14;;;;;;;;;;;;;;;26.92;30.76;98283.53;5072632;28;19929;-57
2022/06/18 10:25:27;;;;;;;;;;;;;;;26.80;30.56;98281.25;5064148;28;19920;-56
2022/06/18 10:28:46;;;;;;;;;;;;;;;26.84;29.40;98277.22;5062219;28;20213;-56
2022/06/18 10:31:41;;;;;;;;;;;;;;;27.13;29.76;98272.22;5068529;28;19928;-57
2022/06/18 10:34:34;;;;;;;;;;;;;;;27.27;30.75;98270.47;5065791;28;20258;-57
2022/06/18 10:37:48;;;;;;;;;;;;;;;27.36;30.55;98265.22;5062368;28;19927;-57
2022/06/18 10:40:46;;;;;;;;;;;;;;;27.08;30.73;98258.72;5071521;28;20168;-56
2022/06/18 10:43:39;;;;;;;;;;;;;;;27.31;30.62;98272.03;5069298;28;19931;-56
2022/06/18 10:46:33;;;;;;;;;;;;;;;27.31;30.82;98266.44;5070167;28;19933;-55
2022/06/18 10:49:24;;;;;;;;;;;;;;;27.27;30.78;98254.56;5066727;28;19932;-57
2022/06/18 10:52:23;;;;;;;;;;;;;;;27.38;30.50;98254.44;5066218;28;19950;-57
2022/06/18 10:55:15;;;;;;;;;;;;;;;26.53;31.63;98251.22;5067506;28;19959;-57
2022/06/18 10:58:08;;;;;;;;;;;;;;;26.92;31.36;98241.72;5063803;28;19936;-54
2022/06/18 11:00:57;;;;;;;;;;;;;;;26.79;31.81;98247.03;5065929;28;19987;-56
2022/06/18 11:03:55;;;;;;;;;;;;;;;26.87;31.34;98234.59;5063467;28;19929;-56
2022/06/18 11:06:46;;;;;;;;;;;;;;;27.07;30.18;98240.41;5071083;28;20061;-57
2022/06/18 11:10:02;;;;;;;;;;;;;;;27.08;29.24;98247.56;5068622;28;19950;-57
2022/06/18 11:12:52;;;;;;;;;;;;;;;27.29;30.37;98240.97;5076132;28;20404;-57
2022/06/18 11:15:41;;;;;;;;;;;;;;;27.18;30.70;98234.72;5070604;28;20014;-56
2022/06/18 11:18:30;;;;;;;;;;;;;;;27.22;30.86;98237.47;5060747;28;19932;-56
2022/06/18 11:21:37;;;;;;;;;;;;;;;27.20;29.43;98226.72;5067900;28;20070;-57
2022/06/18 11:24:29;;;;;;;;;;;;;;;27.44;30.58;98229.66;5059680;28;19931;-57
2022/06/18 11:27:19;;;;;;;;;;;;;;;27.44;29.80;98230.47;5078726;28;19928;-57
2022/06/18 11:30:10;;;;;;;;;;;;;;;27.44;30.58;98222.09;5066019;28;19924;-55
2022/06/18 11:37:17;;;;;;;;;;;;;;;27.50;29.86;98212.03;5061668;28;19916;-56
2022/06/18 11:40:17;;;;;;;;;;;;;;;27.51;30.56;98213.63;5062255;28;19924;-57
2022/06/18 11:43:14;;;;;;;;;;;;;;;27.71;30.81;98199.06;5061323;28;19942;-55
2022/06/18 11:46:06;;;;;;;;;;;;;;;27.65;30.82;98205.09;5073360;28;19920;-57
2022/06/18 11:48:55;;;;;;;;;;;;;;;27.59;31.05;98192.00;5069524;28;20216;-57
2022/06/18 11:51:46;;;;;;;;;;;;;;;27.41;31.54;98197.78;5075734;28;19924;-57
2022/06/18 11:54:35;;;;;;;;;;;;;;;27.80;29.05;98185.38;5079802;28;19993;-63
2022/06/18 11:57:48;;;;;;;;;;;;;;;28.13;29.37;98186.50;5078761;28;20204;-57
2022/06/18 12:00:47;;;;;;;;;;;;;;;28.22;28.43;98185.97;5077439;28;19927;-57
2022/06/18 12:03:37;;;;;;;;;;;;;;;28.27;28.00;98186.28;5080513;28;19927;-57
2022/06/18 12:06:50;;;;;;;;;;;;;;;28.67;27.63;98173.28;5066289;28;20143;-57
2022/06/18 12:10:05;;;;;;;;;;;;;;;28.13;29.31;98173.31;5070777;28;19924;-58
2022/06/18 12:12:57;;;;;;;;;;;;;;;27.77;30.21;98166.69;5063900;28;19927;-58
2022/06/18 12:15:49;;;;;;;;;;;;;;;27.80;30.54;98163.81;5075069;28;19926;-57
2022/06/18 12:18:38;;;;;;;;;;;;;;;28.05;29.03;98162.69;5065513;28;19920;-57
2022/06/18 12:21:33;;;;;;;;;;;;;;;29.35;26.58;98163.63;5064810;28;19924;-57
2022/06/18 12:24:24;;;;;;;;;;;;;;;28.75;28.62;98157.16;5061010;28;19927;-57
2022/06/18 12:27:37;;;;;;;;;;;;;;;28.35;29.40;98153.47;5065043;28;19924;-57
2022/06/18 12:30:28;;;;;;;;;;;;;;;27.67;30.80;98144.03;5064927;28;20110;-57
2022/06/18 12:33:19;;;;;;;;;;;;;;;27.59;30.62;98138.97;5069084;28;20258;-57
2022/06/18 12:36:09;;;;;;;;;;;;;;;27.47;29.33;98137.53;5063818;28;19927;-54
2022/06/18 12:39:00;;;;;;;;;;;;;;;27.43;30.82;98142.34;5061422;28;20013;-57
2022/06/18 12:41:52;;;;;;;;;;;;;;;27.36;30.75;98134.88;5062035;28;19925;-57
2022/06/18 12:47:55;;;;;;;;;;;;;;;27.66;30.26;98128.50;5076337;28;20081;-57
2022/06/18 12:50:48;;;;;;;;;;;;;;;27.51;30.51;98129.91;5076904;28;20204;-57
2022/06/18 12:53:51;;;;;;;;;;;;;;;27.88;30.41;98126.22;5074937;28;20370;-57
2022/06/18 12:56:42;;;;;;;;;;;;;;;27.89;30.20;98116.63;5071700;28;19921;-56
2022/06/18 12:59:33;;;;;;;;;;;;;;;27.98;30.26;98110.53;5073981;28;19928;-57
2022/06/18 13:03:05;;;;;;;;;;;;;;;28.40;29.13;98119.44;5072799;28;19920;-55
2022/06/18 13:05:56;;;;;;;;;;;;;;;28.27;29.52;98110.06;5070562;28;19932;-57
2022/06/18 13:08:48;;;;;;;;;;;;;;;27.90;30.62;98101.44;5072319;28;19970;-57
2022/06/18 13:12:09;;;;;;;;;;;;;;;27.88;30.30;98100.31;5068184;28;19936;-57
2022/06/18 13:15:27;;;;;;;;;;;;;;;27.55;30.72;98097.16;5066120;28;19924;-56
2022/06/18 13:18:18;;;;;;;;;;;;;;;27.47;31.26;98094.88;5064396;28;20406;-57
2022/06/18 13:21:10;;;;;;;;;;;;;;;27.56;30.44;98093.16;5064649;28;20009;-56
2022/06/18 13:30:13;;;;;;;;;;;;;;;27.62;28.84;98085.91;5060179;28;19921;-56
2022/06/18 13:33:04;;;;;;;;;;;;;;;28.01;30.00;98078.94;5064752;28;19926;-56
2022/06/18 13:35:55;;;;;;;;;;;;;;;27.64;30.54;98077.88;5061208;28;19963;-53
2022/06/18 13:38:45;;;;;;;;;;;;;;;28.45;27.89;98068.66;5053531;28;20010;-57
2022/06/18 13:41:35;;;;;;;;;;;;;;;29.55;26.46;98062.84;5076487;28;19925;-57
2022/06/18 13:44:40;;;;;;;;;;;;;;;29.75;26.54;98048.81;5064634;28;19921;-55
2022/06/18 13:47:53;;;;;;;;;;;;;;;28.89;28.15;98055.44;5067998;28;20277;-54
2022/06/18 13:50:44;;;;;;;;;;;;;;;28.37;29.40;98056.03;5068737;28;20108;-56
2022/06/18 13:53:34;;;;;;;;;;;;;;;28.57;28.79;98044.88;5072167;28;19935;-58
2022/06/18 13:56:24;;;;;;;;;;;;;;;28.75;27.85;98036.13;5060056;28;19921;-54
2022/06/18 13:59:18;;;;;;;;;;;;;;;29.02;28.58;98034.00;5065006;28;19955;-58
2022/06/18 14:02:10;;;;;;;;;;;;;;;28.33;29.58;98032.94;5076988;28;20745;-59
2022/06/18 14:04:59;;;;;;;;;;;;;;;28.86;28.86;98040.28;5066379;28;19924;-57
2022/06/18 14:07:54;;;;;;;;;;;;;;;29.36;28.09;98027.28;5062441;28;19921;-57
2022/06/18 14:10:45;;;;;;;;;;;;;;;29.29;27.90;98024.63;5077745;28;20186;-57
2022/06/18 14:13:44;;;;;;;;;;;;;;;29.18;27.96;98020.06;5062311;28;19929;-57
2022/06/18 14:16:33;;;;;;;;;;;;;;;28.78;28.90;98036.09;5077083;28;19924;-57
2022/06/18 14:19:27;;;;;;;;;;;;;;;29.02;28.81;98022.81;5073672;28;20305;-56
2022/06/18 14:22:25;;;;;;;;;;;;;;;29.10;28.35;98024.25;5076429;28;19963;-58
2022/06/18 14:25:18;;;;;;;;;;;;;;;29.11;28.43;98020.22;5070747;28;19924;-58
2022/06/18 14:28:07;;;;;;;;;;;;;;;28.87;28.65;98021.50;5062185;28;19954;-57
2022/06/18 14:31:20;;;;;;;;;;;;;;;28.86;29.02;98008.75;5066642;28;19920;-56
2022/06/18 14:34:12;;;;;;;;;;;;;;;28.51;29.10;98015.84;5074966;28;20397;-57
2022/06/18 14:37:08;;;;;;;;;;;;;;;28.52;28.52;98012.63;5067295;28;20239;-58
2022/06/18 14:39:57;;;;;;;;;;;;;;;30.13;25.21;97998.66;5069170;28;19920;-57
2022/06/18 14:43:06;;;;;;;;;;;;;;;30.47;25.53;97989.75;5065613;28;19943;-56
2022/06/18 14:45:56;;;;;;;;;;;;;;;30.23;25.96;97991.97;5064614;28;20312;-59
2022/06/18 14:48:52;;;;;;;;;;;;;;;30.60;25.63;97984.16;5041721;28;20408;-58
2022/06/18 14:51:51;;;;;;;;;;;;;;;30.81;25.33;97984.81;5041160;28;20011;-58
2022/06/18 14:54:44;;;;;;;;;;;;;;;29.79;27.14;97978.72;5042687;28;19924;-57
2022/06/18 14:58:13;;;;;;;;;;;;;;;29.42;27.77;97966.78;5037143;28;19937;-58
2022/06/18 15:01:09;;;;;;;;;;;;;;;29.13;28.26;97972.22;5040644;28;19944;-57
2022/06/18 15:04:05;;;;;;;;;;;;;;;28.96;28.36;97963.81;5036983;28;19928;-55
2022/06/18 15:06:59;;;;;;;;;;;;;;;29.28;28.55;97956.69;5024593;28;20298;-57
2022/06/18 15:10:12;;;;;;;;;;;;;;;29.55;27.59;97958.50;5026865;28;20011;-58
2022/06/18 15:13:01;;;;;;;;;;;;;;;29.78;26.69;97949.94;5035370;28;20298;-58
2022/06/18 15:16:05;;;;;;;;;;;;;;;29.68;27.62;97946.16;5041390;28;20412;-57
2022/06/18 15:19:03;;;;;;;;;;;;;;;29.80;27.65;97941.09;5033638;28;19920;-56
2022/06/18 15:21:56;;;;;;;;;;;;;;;29.66;27.83;97943.00;5032536;28;19921;-58
2022/06/18 15:27:56;;;;;;;;;;;;;;;29.31;28.42;97938.25;5025141;28;20243;-57
2022/06/18 15:30:46;;;;;;;;;;;;;;;28.76;29.41;97937.84;5039450;28;19925;-57
2022/06/18 15:33:38;;;;;;;;;;;;;;;28.56;29.53;97935.09;5035874;28;19994;-57
2022/06/18 15:36:29;;;;;;;;;;;;;;;28.33;29.90;97927.56;5037985;28;19925;-57
2022/06/18 15:39:18;;;;;;;;;;;;;;;28.57;28.52;97931.06;5040687;28;20425;-56
2022/06/18 15:42:13;;;;;;;;;;;;;;;28.56;29.52;97929.50;5036294;28;19932;-57
2022/06/18 15:45:01;;;;;;;;;;;;;;;28.89;28.48;97929.59;5040399;28;19925;-56
2022/06/18 15:47:50;;;;;;;;;;;;;;;29.61;27.23;97918.34;5034322;28;20239;-56
2022/06/18 15:50:40;;;;;;;;;;;;;;;29.84;27.47;97919.38;5040296;28;19974;-56
2022/06/18 15:53:29;;;;;;;;;;;;;;;29.83;26.68;97913.00;5039233;28;20681;-55
2022/06/18 15:56:19;;;;;;;;;;;;;;;29.43;28.06;97912.38;5029788;28;19936;-56
2022/06/18 15:59:09;;;;;;;;;;;;;;;29.64;27.97;97911.88;5030135;28;19921;-56
2022/06/18 16:01:57;;;;;;;;;;;;;;;29.41;28.08;97920.44;5039355;28;20000;-56
2022/06/18 16:04:46;;;;;;;;;;;;;;;29.54;27.99;97903.75;5041711;28;20380;-56
2022/06/18 16:07:59;;;;;;;;;;;;;;;29.59;27.73;97906.81;5044249;28;19990;-56
2022/06/18 16:10:47;;;;;;;;;;;;;;;29.69;27.94;97911.34;5034951;28;19928;-55
2022/06/18 16:13:40;;;;;;;;;;;;;;;29.84;27.29;97905.38;5040794;28;19924;-56